sensor_id;sensor_type;location;lat;lon;timestamp;P1;durP1;ratioP1;P2;durP2;ratioP2
15102;SDS011;7652;53.584;9.998;2022-12-24T00:01:58;10.60;;;6.93;;
15102;SDS011;7652;53.584;9.998;2022-12-24T00:05:01;15.07;;;7.93;;
15102;SDS011;7652;53.584;9.998;2022-12-24T00:08:05;11.43;;;6.13;;
15102;SDS011;7652;53.584;9.998;2022-12-24T00:11:08;12.87;;;6.93;;
15102;SDS011;7652;53.584;9.998;2022-12-24T00:14:11;12.20;;;5.90;;
15102;SDS011;7652;53.584;9.998;2022-12-24T00:17:15;10.87;;;6.60;;
15102;SDS011;7652;53.584;9.998;2022-12-24T00:20:18;10.40;;;5.47;;
15102;SDS011;7652;53.584;9.998;2022-12-24T00:23:21;11.33;;;7.03;;
15102;SDS011;7652;53.584;9.998;2022-12-24T00:26:24;14.10;;;6.67;;
15102;SDS011;7652;53.584;9.998;2022-12-24T00:29:27;12.10;;;6.43;;
15102;SDS011;7652;53.584;9.998;2022-12-24T00:32:32;10.57;;;5.73;;
15102;SDS011;7652;53.584;9.998;2022-12-24T00:35:35;13.10;;;6.50;;
15102;SDS011;7652;53.584;9.998;2022-12-24T00:38:38;12.47;;;7.10;;
15102;SDS011;7652;53.584;9.998;2022-12-24T00:41:41;13.20;;;6.43;;
15102;SDS011;7652;53.584;9.998;2022-12-24T00:44:44;13.00;;;7.50;;
15102;SDS011;7652;53.584;9.998;2022-12-24T00:47:49;14.17;;;6.50;;
15102;SDS011;7652;53.584;9.998;2022-12-24T00:50:52;15.50;;;6.57;;
15102;SDS011;7652;53.584;9.998;2022-12-24T00:53:55;11.70;;;6.03;;
15102;SDS011;7652;53.584;9.998;2022-12-24T00:56:58;10.77;;;6.27;;
15102;SDS011;7652;53.584;9.998;2022-12-24T01:00:02;10.00;;;5.63;;
15102;SDS011;7652;53.584;9.998;2022-12-24T01:03:06;14.03;;;6.77;;
15102;SDS011;7652;53.584;9.998;2022-12-24T01:06:11;14.30;;;7.37;;
15102;SDS011;7652;53.584;9.998;2022-12-24T01:09:15;13.10;;;7.13;;
15102;SDS011;7652;53.584;9.998;2022-12-24T01:12:18;10.07;;;6.00;;
15102;SDS011;7652;53.584;9.998;2022-12-24T01:15:21;14.87;;;7.23;;
15102;SDS011;7652;53.584;9.998;2022-12-24T01:18:26;11.63;;;6.43;;
15102;SDS011;7652;53.584;9.998;2022-12-24T01:21:29;14.13;;;6.53;;
15102;SDS011;7652;53.584;9.998;2022-12-24T01:24:32;14.70;;;6.90;;
15102;SDS011;7652;53.584;9.998;2022-12-24T01:27:35;13.33;;;7.07;;
15102;SDS011;7652;53.584;9.998;2022-12-24T01:30:39;13.17;;;6.70;;
15102;SDS011;7652;53.584;9.998;2022-12-24T01:33:44;13.30;;;7.00;;
15102;SDS011;7652;53.584;9.998;2022-12-24T01:36:48;13.80;;;6.53;;
15102;SDS011;7652;53.584;9.998;2022-12-24T01:39:51;10.07;;;6.03;;
15102;SDS011;7652;53.584;9.998;2022-12-24T01:43:15;12.50;;;6.20;;
15102;SDS011;7652;53.584;9.998;2022-12-24T01:46:24;10.83;;;5.87;;
15102;SDS011;7652;53.584;9.998;2022-12-24T01:49:31;14.70;;;7.30;;
15102;SDS011;7652;53.584;9.998;2022-12-24T01:52:35;12.53;;;6.43;;
15102;SDS011;7652;53.584;9.998;2022-12-24T01:55:39;12.97;;;6.40;;
15102;SDS011;7652;53.584;9.998;2022-12-24T01:58:44;11.97;;;6.83;;
15102;SDS011;7652;53.584;9.998;2022-12-24T02:01:50;10.80;;;6.07;;
15102;SDS011;7652;53.584;9.998;2022-12-24T02:04:56;13.70;;;6.23;;
15102;SDS011;7652;53.584;9.998;2022-12-24T02:08:04;11.83;;;6.10;;
15102;SDS011;7652;53.584;9.998;2022-12-24T02:11:09;9.80;;;5.87;;
15102;SDS011;7652;53.584;9.998;2022-12-24T02:14:14;12.00;;;6.20;;
15102;SDS011;7652;53.584;9.998;2022-12-24T02:17:19;10.83;;;5.53;;
15102;SDS011;7652;53.584;9.998;2022-12-24T02:24:19;14.63;;;7.73;;
15102;SDS011;7652;53.584;9.998;2022-12-24T02:27:36;13.53;;;6.53;;
15102;SDS011;7652;53.584;9.998;2022-12-24T02:30:54;9.83;;;5.73;;
15102;SDS011;7652;53.584;9.998;2022-12-24T02:34:03;9.50;;;6.00;;
15102;SDS011;7652;53.584;9.998;2022-12-24T02:37:09;13.90;;;6.10;;
15102;SDS011;7652;53.584;9.998;2022-12-24T02:40:20;14.53;;;6.50;;
15102;SDS011;7652;53.584;9.998;2022-12-24T02:43:27;14.13;;;6.60;;
15102;SDS011;7652;53.584;9.998;2022-12-24T02:46:34;9.30;;;4.90;;
15102;SDS011;7652;53.584;9.998;2022-12-24T02:49:38;11.20;;;6.40;;
15102;SDS011;7652;53.584;9.998;2022-12-24T02:52:45;11.13;;;5.60;;
15102;SDS011;7652;53.584;9.998;2022-12-24T02:55:51;12.20;;;5.93;;
15102;SDS011;7652;53.584;9.998;2022-12-24T02:59:24;10.63;;;6.20;;
15102;SDS011;7652;53.584;9.998;2022-12-24T03:02:42;15.03;;;5.87;;
15102;SDS011;7652;53.584;9.998;2022-12-24T03:05:55;11.83;;;6.10;;
15102;SDS011;7652;53.584;9.998;2022-12-24T03:09:04;10.83;;;5.37;;
15102;SDS011;7652;53.584;9.998;2022-12-24T03:12:15;8.33;;;4.90;;
15102;SDS011;7652;53.584;9.998;2022-12-24T03:15:23;8.87;;;4.70;;
15102;SDS011;7652;53.584;9.998;2022-12-24T03:18:29;11.97;;;5.40;;
15102;SDS011;7652;53.584;9.998;2022-12-24T03:21:33;14.73;;;6.00;;
15102;SDS011;7652;53.584;9.998;2022-12-24T03:24:39;9.37;;;5.17;;
15102;SDS011;7652;53.584;9.998;2022-12-24T03:27:42;10.33;;;5.53;;
15102;SDS011;7652;53.584;9.998;2022-12-24T03:30:46;10.20;;;5.30;;
15102;SDS011;7652;53.584;9.998;2022-12-24T03:33:51;9.63;;;5.03;;
15102;SDS011;7652;53.584;9.998;2022-12-24T03:36:54;7.57;;;5.17;;
15102;SDS011;7652;53.584;9.998;2022-12-24T03:39:58;9.03;;;5.20;;
15102;SDS011;7652;53.584;9.998;2022-12-24T03:43:01;10.10;;;5.43;;
15102;SDS011;7652;53.584;9.998;2022-12-24T03:46:04;8.73;;;5.30;;
15102;SDS011;7652;53.584;9.998;2022-12-24T03:49:09;8.27;;;4.50;;
15102;SDS011;7652;53.584;9.998;2022-12-24T03:52:12;8.53;;;4.20;;
15102;SDS011;7652;53.584;9.998;2022-12-24T03:55:15;7.90;;;5.00;;
15102;SDS011;7652;53.584;9.998;2022-12-24T03:58:18;9.10;;;5.23;;
15102;SDS011;7652;53.584;9.998;2022-12-24T04:01:22;6.47;;;4.00;;
15102;SDS011;7652;53.584;9.998;2022-12-24T04:04:26;11.10;;;4.70;;
15102;SDS011;7652;53.584;9.998;2022-12-24T04:07:30;12.47;;;4.30;;
15102;SDS011;7652;53.584;9.998;2022-12-24T04:10:33;6.53;;;4.20;;
15102;SDS011;7652;53.584;9.998;2022-12-24T04:13:36;6.30;;;4.40;;
15102;SDS011;7652;53.584;9.998;2022-12-24T04:16:39;8.07;;;5.23;;
15102;SDS011;7652;53.584;9.998;2022-12-24T04:19:44;5.63;;;3.83;;
15102;SDS011;7652;53.584;9.998;2022-12-24T04:22:47;8.63;;;4.90;;
15102;SDS011;7652;53.584;9.998;2022-12-24T04:25:50;6.13;;;3.60;;
15102;SDS011;7652;53.584;9.998;2022-12-24T04:28:53;6.13;;;4.47;;
15102;SDS011;7652;53.584;9.998;2022-12-24T04:31:56;6.97;;;3.90;;
15102;SDS011;7652;53.584;9.998;2022-12-24T04:35:00;9.03;;;4.77;;
15102;SDS011;7652;53.584;9.998;2022-12-24T04:38:03;5.60;;;3.73;;
15102;SDS011;7652;53.584;9.998;2022-12-24T04:41:07;7.07;;;3.87;;
15102;SDS011;7652;53.584;9.998;2022-12-24T04:44:23;8.97;;;4.43;;
15102;SDS011;7652;53.584;9.998;2022-12-24T04:47:26;6.07;;;4.10;;
15102;SDS011;7652;53.584;9.998;2022-12-24T04:50:30;7.13;;;4.10;;
15102;SDS011;7652;53.584;9.998;2022-12-24T04:53:33;6.10;;;3.77;;
15102;SDS011;7652;53.584;9.998;2022-12-24T04:56:37;4.77;;;3.63;;
15102;SDS011;7652;53.584;9.998;2022-12-24T04:59:40;8.03;;;4.53;;
15102;SDS011;7652;53.584;9.998;2022-12-24T05:02:43;6.53;;;4.13;;
15102;SDS011;7652;53.584;9.998;2022-12-24T05:05:47;6.47;;;4.23;;
15102;SDS011;7652;53.584;9.998;2022-12-24T05:08:52;7.60;;;4.03;;
15102;SDS011;7652;53.584;9.998;2022-12-24T05:11:55;6.67;;;4.33;;
15102;SDS011;7652;53.584;9.998;2022-12-24T05:14:58;5.20;;;4.00;;
15102;SDS011;7652;53.584;9.998;2022-12-24T05:18:01;6.43;;;3.83;;
15102;SDS011;7652;53.584;9.998;2022-12-24T05:21:08;8.63;;;4.27;;
15102;SDS011;7652;53.584;9.998;2022-12-24T05:24:12;10.10;;;4.70;;
15102;SDS011;7652;53.584;9.998;2022-12-24T05:27:43;8.00;;;4.23;;
15102;SDS011;7652;53.584;9.998;2022-12-24T05:30:51;7.43;;;4.80;;
15102;SDS011;7652;53.584;9.998;2022-12-24T05:33:54;5.27;;;4.10;;
15102;SDS011;7652;53.584;9.998;2022-12-24T05:36:59;6.50;;;3.43;;
15102;SDS011;7652;53.584;9.998;2022-12-24T05:40:02;6.90;;;3.80;;
15102;SDS011;7652;53.584;9.998;2022-12-24T05:43:05;9.03;;;4.70;;
15102;SDS011;7652;53.584;9.998;2022-12-24T05:46:09;6.87;;;4.13;;
15102;SDS011;7652;53.584;9.998;2022-12-24T05:49:14;7.73;;;4.40;;
15102;SDS011;7652;53.584;9.998;2022-12-24T05:52:18;7.30;;;4.43;;
15102;SDS011;7652;53.584;9.998;2022-12-24T05:55:21;7.37;;;4.43;;
15102;SDS011;7652;53.584;9.998;2022-12-24T05:58:24;8.17;;;5.07;;
15102;SDS011;7652;53.584;9.998;2022-12-24T06:01:27;6.20;;;3.80;;
15102;SDS011;7652;53.584;9.998;2022-12-24T06:04:31;8.07;;;4.90;;
15102;SDS011;7652;53.584;9.998;2022-12-24T06:07:35;6.73;;;4.37;;
15102;SDS011;7652;53.584;9.998;2022-12-24T06:10:38;5.30;;;3.73;;
15102;SDS011;7652;53.584;9.998;2022-12-24T06:13:41;6.13;;;4.00;;
15102;SDS011;7652;53.584;9.998;2022-12-24T06:16:45;6.90;;;3.90;;
15102;SDS011;7652;53.584;9.998;2022-12-24T06:19:48;6.67;;;4.17;;
15102;SDS011;7652;53.584;9.998;2022-12-24T06:22:52;6.13;;;4.10;;
15102;SDS011;7652;53.584;9.998;2022-12-24T06:25:55;6.53;;;3.73;;
15102;SDS011;7652;53.584;9.998;2022-12-24T06:29:01;5.43;;;3.87;;
15102;SDS011;7652;53.584;9.998;2022-12-24T06:32:04;6.77;;;4.07;;
15102;SDS011;7652;53.584;9.998;2022-12-24T06:35:07;6.93;;;3.77;;
15102;SDS011;7652;53.584;9.998;2022-12-24T06:38:11;4.80;;;3.67;;
15102;SDS011;7652;53.584;9.998;2022-12-24T06:41:15;5.60;;;3.83;;
15102;SDS011;7652;53.584;9.998;2022-12-24T06:44:19;5.77;;;3.50;;
15102;SDS011;7652;53.584;9.998;2022-12-24T06:47:22;5.60;;;3.60;;
15102;SDS011;7652;53.584;9.998;2022-12-24T06:50:25;5.67;;;3.53;;
15102;SDS011;7652;53.584;9.998;2022-12-24T06:53:30;5.70;;;3.80;;
15102;SDS011;7652;53.584;9.998;2022-12-24T06:56:33;5.60;;;3.87;;
15102;SDS011;7652;53.584;9.998;2022-12-24T06:59:36;4.90;;;3.60;;
15102;SDS011;7652;53.584;9.998;2022-12-24T07:02:39;3.97;;;3.07;;
15102;SDS011;7652;53.584;9.998;2022-12-24T07:05:43;4.53;;;3.47;;
15102;SDS011;7652;53.584;9.998;2022-12-24T07:08:47;4.27;;;3.10;;
15102;SDS011;7652;53.584;9.998;2022-12-24T07:11:50;5.57;;;3.07;;
15102;SDS011;7652;53.584;9.998;2022-12-24T07:14:53;5.60;;;3.70;;
15102;SDS011;7652;53.584;9.998;2022-12-24T07:17:56;4.63;;;3.13;;
15102;SDS011;7652;53.584;9.998;2022-12-24T07:20:59;5.50;;;3.43;;
15102;SDS011;7652;53.584;9.998;2022-12-24T07:24:05;4.23;;;2.97;;
15102;SDS011;7652;53.584;9.998;2022-12-24T07:27:08;4.43;;;3.03;;
15102;SDS011;7652;53.584;9.998;2022-12-24T07:30:11;4.77;;;3.00;;
15102;SDS011;7652;53.584;9.998;2022-12-24T07:33:15;5.37;;;3.20;;
15102;SDS011;7652;53.584;9.998;2022-12-24T07:36:18;4.67;;;3.17;;
15102;SDS011;7652;53.584;9.998;2022-12-24T07:39:24;5.27;;;3.47;;
15102;SDS011;7652;53.584;9.998;2022-12-24T07:42:27;4.07;;;2.93;;
15102;SDS011;7652;53.584;9.998;2022-12-24T07:45:30;5.33;;;3.53;;
15102;SDS011;7652;53.584;9.998;2022-12-24T07:48:33;6.03;;;2.73;;
15102;SDS011;7652;53.584;9.998;2022-12-24T07:51:36;3.97;;;3.13;;
15102;SDS011;7652;53.584;9.998;2022-12-24T07:54:41;4.30;;;3.07;;
15102;SDS011;7652;53.584;9.998;2022-12-24T07:57:44;3.37;;;2.50;;
15102;SDS011;7652;53.584;9.998;2022-12-24T08:00:47;4.10;;;2.77;;
15102;SDS011;7652;53.584;9.998;2022-12-24T08:03:50;4.23;;;2.67;;
15102;SDS011;7652;53.584;9.998;2022-12-24T08:06:55;3.90;;;2.17;;
15102;SDS011;7652;53.584;9.998;2022-12-24T08:10:02;3.67;;;2.33;;
15102;SDS011;7652;53.584;9.998;2022-12-24T08:13:09;3.60;;;2.67;;
15102;SDS011;7652;53.584;9.998;2022-12-24T08:16:12;3.17;;;2.30;;
15102;SDS011;7652;53.584;9.998;2022-12-24T08:19:15;2.93;;;2.63;;
15102;SDS011;7652;53.584;9.998;2022-12-24T08:22:18;3.90;;;2.77;;
15102;SDS011;7652;53.584;9.998;2022-12-24T08:25:23;3.47;;;2.57;;
15102;SDS011;7652;53.584;9.998;2022-12-24T08:28:28;2.77;;;2.17;;
15102;SDS011;7652;53.584;9.998;2022-12-24T08:31:31;4.40;;;2.27;;
15102;SDS011;7652;53.584;9.998;2022-12-24T08:34:37;2.90;;;2.50;;
15102;SDS011;7652;53.584;9.998;2022-12-24T08:37:40;2.87;;;2.50;;
15102;SDS011;7652;53.584;9.998;2022-12-24T08:40:44;4.27;;;2.60;;
15102;SDS011;7652;53.584;9.998;2022-12-24T08:43:50;3.03;;;2.73;;
15102;SDS011;7652;53.584;9.998;2022-12-24T08:46:53;2.40;;;2.20;;
15102;SDS011;7652;53.584;9.998;2022-12-24T08:49:56;2.77;;;2.50;;
15102;SDS011;7652;53.584;9.998;2022-12-24T08:52:59;2.67;;;2.27;;
15102;SDS011;7652;53.584;9.998;2022-12-24T08:56:04;3.93;;;2.80;;
15102;SDS011;7652;53.584;9.998;2022-12-24T08:59:09;2.73;;;2.37;;
15102;SDS011;7652;53.584;9.998;2022-12-24T09:02:12;3.43;;;2.60;;
15102;SDS011;7652;53.584;9.998;2022-12-24T09:05:15;3.17;;;2.23;;
15102;SDS011;7652;53.584;9.998;2022-12-24T09:08:19;3.27;;;2.70;;
15102;SDS011;7652;53.584;9.998;2022-12-24T09:11:23;3.20;;;2.50;;
15102;SDS011;7652;53.584;9.998;2022-12-24T09:14:27;5.43;;;2.93;;
15102;SDS011;7652;53.584;9.998;2022-12-24T09:17:30;2.80;;;2.50;;
15102;SDS011;7652;53.584;9.998;2022-12-24T09:20:33;4.30;;;3.20;;
15102;SDS011;7652;53.584;9.998;2022-12-24T09:23:37;3.90;;;3.00;;
15102;SDS011;7652;53.584;9.998;2022-12-24T09:26:42;3.00;;;2.60;;
15102;SDS011;7652;53.584;9.998;2022-12-24T09:29:57;2.73;;;2.53;;
15102;SDS011;7652;53.584;9.998;2022-12-24T09:33:00;3.57;;;2.63;;
15102;SDS011;7652;53.584;9.998;2022-12-24T09:36:04;3.83;;;2.73;;
15102;SDS011;7652;53.584;9.998;2022-12-24T09:39:07;3.40;;;3.07;;
15102;SDS011;7652;53.584;9.998;2022-12-24T09:42:15;3.43;;;2.53;;
15102;SDS011;7652;53.584;9.998;2022-12-24T09:45:26;5.13;;;3.30;;
15102;SDS011;7652;53.584;9.998;2022-12-24T09:48:33;3.70;;;3.00;;
15102;SDS011;7652;53.584;9.998;2022-12-24T09:51:40;3.47;;;2.60;;
15102;SDS011;7652;53.584;9.998;2022-12-24T09:54:48;3.57;;;3.20;;
15102;SDS011;7652;53.584;9.998;2022-12-24T09:58:01;3.83;;;2.70;;
15102;SDS011;7652;53.584;9.998;2022-12-24T10:01:09;4.37;;;3.17;;
15102;SDS011;7652;53.584;9.998;2022-12-24T10:04:14;3.37;;;2.83;;
15102;SDS011;7652;53.584;9.998;2022-12-24T10:07:22;3.70;;;2.53;;
15102;SDS011;7652;53.584;9.998;2022-12-24T10:10:50;3.00;;;2.70;;
15102;SDS011;7652;53.584;9.998;2022-12-24T10:14:02;3.93;;;2.93;;
15102;SDS011;7652;53.584;9.998;2022-12-24T10:17:21;3.70;;;3.10;;
15102;SDS011;7652;53.584;9.998;2022-12-24T10:20:38;2.80;;;2.60;;
15102;SDS011;7652;53.584;9.998;2022-12-24T10:23:46;3.40;;;3.07;;
15102;SDS011;7652;53.584;9.998;2022-12-24T10:26:57;4.30;;;3.40;;
15102;SDS011;7652;53.584;9.998;2022-12-24T10:30:12;3.80;;;3.20;;
15102;SDS011;7652;53.584;9.998;2022-12-24T10:33:19;3.97;;;3.50;;
15102;SDS011;7652;53.584;9.998;2022-12-24T10:36:30;4.87;;;3.87;;
15102;SDS011;7652;53.584;9.998;2022-12-24T10:39:33;4.70;;;3.20;;
15102;SDS011;7652;53.584;9.998;2022-12-24T10:42:37;4.47;;;3.57;;
15102;SDS011;7652;53.584;9.998;2022-12-24T10:45:54;4.67;;;3.70;;
15102;SDS011;7652;53.584;9.998;2022-12-24T10:48:59;4.77;;;4.07;;
15102;SDS011;7652;53.584;9.998;2022-12-24T10:52:04;3.40;;;3.10;;
15102;SDS011;7652;53.584;9.998;2022-12-24T10:55:19;5.00;;;3.10;;
15102;SDS011;7652;53.584;9.998;2022-12-24T10:58:23;4.17;;;3.67;;
15102;SDS011;7652;53.584;9.998;2022-12-24T11:04:47;5.80;;;3.13;;
15102;SDS011;7652;53.584;9.998;2022-12-24T11:07:57;4.53;;;3.70;;
15102;SDS011;7652;53.584;9.998;2022-12-24T11:11:02;4.87;;;3.80;;
15102;SDS011;7652;53.584;9.998;2022-12-24T11:14:10;4.53;;;4.00;;
15102;SDS011;7652;53.584;9.998;2022-12-24T11:17:20;4.13;;;3.50;;
15102;SDS011;7652;53.584;9.998;2022-12-24T11:20:25;4.87;;;3.83;;
15102;SDS011;7652;53.584;9.998;2022-12-24T11:23:29;5.37;;;3.97;;
15102;SDS011;7652;53.584;9.998;2022-12-24T11:26:32;4.03;;;3.63;;
15102;SDS011;7652;53.584;9.998;2022-12-24T11:29:36;5.50;;;3.87;;
15102;SDS011;7652;53.584;9.998;2022-12-24T11:32:40;3.97;;;3.53;;
15102;SDS011;7652;53.584;9.998;2022-12-24T11:35:45;4.43;;;3.73;;
15102;SDS011;7652;53.584;9.998;2022-12-24T11:38:51;6.03;;;4.07;;
15102;SDS011;7652;53.584;9.998;2022-12-24T11:41:55;4.37;;;3.70;;
15102;SDS011;7652;53.584;9.998;2022-12-24T11:44:58;4.70;;;4.03;;
15102;SDS011;7652;53.584;9.998;2022-12-24T11:48:21;6.30;;;4.30;;
15102;SDS011;7652;53.584;9.998;2022-12-24T11:51:27;4.00;;;3.60;;
15102;SDS011;7652;53.584;9.998;2022-12-24T11:54:30;5.53;;;4.17;;
15102;SDS011;7652;53.584;9.998;2022-12-24T11:57:40;4.97;;;4.07;;
15102;SDS011;7652;53.584;9.998;2022-12-24T12:00:50;5.70;;;4.07;;
15102;SDS011;7652;53.584;9.998;2022-12-24T12:03:57;5.13;;;4.10;;
15102;SDS011;7652;53.584;9.998;2022-12-24T12:07:04;6.40;;;4.50;;
15102;SDS011;7652;53.584;9.998;2022-12-24T12:10:16;4.40;;;3.77;;
15102;SDS011;7652;53.584;9.998;2022-12-24T12:13:23;5.63;;;4.30;;
15102;SDS011;7652;53.584;9.998;2022-12-24T12:16:36;8.00;;;4.60;;
15102;SDS011;7652;53.584;9.998;2022-12-24T12:20:03;5.30;;;4.53;;
15102;SDS011;7652;53.584;9.998;2022-12-24T12:23:13;6.27;;;5.17;;
15102;SDS011;7652;53.584;9.998;2022-12-24T12:26:20;6.57;;;4.60;;
15102;SDS011;7652;53.584;9.998;2022-12-24T12:29:26;6.93;;;5.20;;
15102;SDS011;7652;53.584;9.998;2022-12-24T12:32:36;7.80;;;5.63;;
15102;SDS011;7652;53.584;9.998;2022-12-24T12:35:48;6.07;;;4.77;;
15102;SDS011;7652;53.584;9.998;2022-12-24T12:38:52;6.70;;;4.97;;
15102;SDS011;7652;53.584;9.998;2022-12-24T12:41:57;6.17;;;5.30;;
15102;SDS011;7652;53.584;9.998;2022-12-24T12:45:10;7.20;;;5.50;;
15102;SDS011;7652;53.584;9.998;2022-12-24T12:48:44;6.67;;;4.77;;
15102;SDS011;7652;53.584;9.998;2022-12-24T12:52:06;8.50;;;5.50;;
15102;SDS011;7652;53.584;9.998;2022-12-24T12:55:21;8.33;;;5.10;;
15102;SDS011;7652;53.584;9.998;2022-12-24T12:58:30;8.97;;;5.17;;
15102;SDS011;7652;53.584;9.998;2022-12-24T13:01:40;6.67;;;5.53;;
15102;SDS011;7652;53.584;9.998;2022-12-24T13:04:56;6.80;;;5.13;;
15102;SDS011;7652;53.584;9.998;2022-12-24T13:08:26;9.97;;;6.50;;
15102;SDS011;7652;53.584;9.998;2022-12-24T13:11:49;10.03;;;6.33;;
15102;SDS011;7652;53.584;9.998;2022-12-24T13:15:08;10.47;;;6.27;;
15102;SDS011;7652;53.584;9.998;2022-12-24T13:18:50;8.83;;;6.10;;
15102;SDS011;7652;53.584;9.998;2022-12-24T13:22:03;9.33;;;6.70;;
15102;SDS011;7652;53.584;9.998;2022-12-24T13:25:18;9.30;;;6.17;;
15102;SDS011;7652;53.584;9.998;2022-12-24T13:28:29;7.40;;;5.57;;
15102;SDS011;7652;53.584;9.998;2022-12-24T13:31:37;11.07;;;6.87;;
15102;SDS011;7652;53.584;9.998;2022-12-24T13:34:42;7.93;;;5.67;;
15102;SDS011;7652;53.584;9.998;2022-12-24T13:37:50;8.13;;;5.27;;
15102;SDS011;7652;53.584;9.998;2022-12-24T13:40:56;8.60;;;5.47;;
15102;SDS011;7652;53.584;9.998;2022-12-24T13:44:41;8.03;;;4.80;;
15102;SDS011;7652;53.584;9.998;2022-12-24T13:47:44;5.90;;;4.07;;
15102;SDS011;7652;53.584;9.998;2022-12-24T13:50:47;8.97;;;4.90;;
15102;SDS011;7652;53.584;9.998;2022-12-24T13:53:55;5.93;;;4.60;;
15102;SDS011;7652;53.584;9.998;2022-12-24T13:57:01;10.77;;;5.00;;
15102;SDS011;7652;53.584;9.998;2022-12-24T14:00:30;7.73;;;4.17;;
15102;SDS011;7652;53.584;9.998;2022-12-24T14:03:44;11.57;;;4.50;;
15102;SDS011;7652;53.584;9.998;2022-12-24T14:06:50;9.80;;;4.23;;
15102;SDS011;7652;53.584;9.998;2022-12-24T14:09:54;7.17;;;3.87;;
15102;SDS011;7652;53.584;9.998;2022-12-24T14:13:01;8.43;;;4.33;;
15102;SDS011;7652;53.584;9.998;2022-12-24T14:16:06;8.97;;;3.97;;
15102;SDS011;7652;53.584;9.998;2022-12-24T14:19:12;7.87;;;3.77;;
15102;SDS011;7652;53.584;9.998;2022-12-24T14:22:24;13.03;;;4.47;;
15102;SDS011;7652;53.584;9.998;2022-12-24T14:25:30;6.87;;;4.20;;
15102;SDS011;7652;53.584;9.998;2022-12-24T14:28:35;8.00;;;3.93;;
15102;SDS011;7652;53.584;9.998;2022-12-24T14:31:48;7.27;;;4.10;;
15102;SDS011;7652;53.584;9.998;2022-12-24T14:35:03;9.67;;;4.70;;
15102;SDS011;7652;53.584;9.998;2022-12-24T14:38:11;11.37;;;5.57;;
15102;SDS011;7652;53.584;9.998;2022-12-24T14:44:45;9.00;;;4.43;;
15102;SDS011;7652;53.584;9.998;2022-12-24T14:47:58;7.07;;;4.33;;
15102;SDS011;7652;53.584;9.998;2022-12-24T14:51:11;8.83;;;5.00;;
15102;SDS011;7652;53.584;9.998;2022-12-24T14:54:30;8.70;;;4.50;;
15102;SDS011;7652;53.584;9.998;2022-12-24T14:57:36;7.60;;;4.17;;
15102;SDS011;7652;53.584;9.998;2022-12-24T15:00:42;9.43;;;4.87;;
15102;SDS011;7652;53.584;9.998;2022-12-24T15:03:46;7.93;;;4.37;;
15102;SDS011;7652;53.584;9.998;2022-12-24T15:07:01;6.73;;;4.03;;
15102;SDS011;7652;53.584;9.998;2022-12-24T15:10:07;10.27;;;5.40;;
15102;SDS011;7652;53.584;9.998;2022-12-24T15:13:34;6.87;;;4.93;;
15102;SDS011;7652;53.584;9.998;2022-12-24T15:16:40;9.83;;;5.37;;
15102;SDS011;7652;53.584;9.998;2022-12-24T15:19:50;13.93;;;7.17;;
15102;SDS011;7652;53.584;9.998;2022-12-24T15:22:55;13.13;;;6.13;;
15102;SDS011;7652;53.584;9.998;2022-12-24T15:26:13;12.53;;;7.10;;
15102;SDS011;7652;53.584;9.998;2022-12-24T15:29:22;9.47;;;6.63;;
15102;SDS011;7652;53.584;9.998;2022-12-24T15:32:27;12.53;;;7.63;;
15102;SDS011;7652;53.584;9.998;2022-12-24T15:35:39;12.07;;;6.77;;
15102;SDS011;7652;53.584;9.998;2022-12-24T15:38:49;10.60;;;6.70;;
15102;SDS011;7652;53.584;9.998;2022-12-24T15:41:55;12.63;;;4.57;;
15102;SDS011;7652;53.584;9.998;2022-12-24T15:45:18;7.37;;;4.13;;
15102;SDS011;7652;53.584;9.998;2022-12-24T15:48:30;11.37;;;4.03;;
15102;SDS011;7652;53.584;9.998;2022-12-24T15:51:34;8.40;;;4.33;;
15102;SDS011;7652;53.584;9.998;2022-12-24T15:54:42;12.43;;;4.43;;
15102;SDS011;7652;53.584;9.998;2022-12-24T15:57:46;7.40;;;3.83;;
15102;SDS011;7652;53.584;9.998;2022-12-24T16:00:58;9.43;;;4.33;;
15102;SDS011;7652;53.584;9.998;2022-12-24T16:04:11;10.83;;;4.47;;
15102;SDS011;7652;53.584;9.998;2022-12-24T16:07:22;14.57;;;4.70;;
15102;SDS011;7652;53.584;9.998;2022-12-24T16:10:26;9.10;;;4.43;;
15102;SDS011;7652;53.584;9.998;2022-12-24T16:13:29;12.90;;;4.30;;
15102;SDS011;7652;53.584;9.998;2022-12-24T16:16:35;8.57;;;4.40;;
15102;SDS011;7652;53.584;9.998;2022-12-24T16:19:45;7.67;;;4.03;;
15102;SDS011;7652;53.584;9.998;2022-12-24T16:22:49;8.60;;;4.20;;
15102;SDS011;7652;53.584;9.998;2022-12-24T16:25:52;9.63;;;4.20;;
15102;SDS011;7652;53.584;9.998;2022-12-24T16:28:55;10.13;;;4.53;;
15102;SDS011;7652;53.584;9.998;2022-12-24T16:31:58;8.80;;;4.23;;
15102;SDS011;7652;53.584;9.998;2022-12-24T16:35:04;8.87;;;4.13;;
15102;SDS011;7652;53.584;9.998;2022-12-24T16:38:09;7.37;;;3.40;;
15102;SDS011;7652;53.584;9.998;2022-12-24T16:41:13;7.23;;;3.90;;
15102;SDS011;7652;53.584;9.998;2022-12-24T16:44:17;9.27;;;4.00;;
15102;SDS011;7652;53.584;9.998;2022-12-24T16:47:19;7.97;;;3.80;;
15102;SDS011;7652;53.584;9.998;2022-12-24T16:50:26;7.77;;;4.03;;
15102;SDS011;7652;53.584;9.998;2022-12-24T16:53:29;8.57;;;4.67;;
15102;SDS011;7652;53.584;9.998;2022-12-24T16:56:32;10.73;;;4.50;;
15102;SDS011;7652;53.584;9.998;2022-12-24T16:59:35;7.00;;;4.73;;
15102;SDS011;7652;53.584;9.998;2022-12-24T17:02:39;10.67;;;4.47;;
15102;SDS011;7652;53.584;9.998;2022-12-24T17:05:43;6.87;;;4.13;;
15102;SDS011;7652;53.584;9.998;2022-12-24T17:08:46;9.77;;;4.23;;
15102;SDS011;7652;53.584;9.998;2022-12-24T17:11:50;7.13;;;4.03;;
15102;SDS011;7652;53.584;9.998;2022-12-24T17:14:53;7.60;;;4.17;;
15102;SDS011;7652;53.584;9.998;2022-12-24T17:17:56;6.23;;;4.00;;
15102;SDS011;7652;53.584;9.998;2022-12-24T17:21:01;5.37;;;3.17;;
15102;SDS011;7652;53.584;9.998;2022-12-24T17:24:05;7.30;;;3.13;;
15102;SDS011;7652;53.584;9.998;2022-12-24T17:27:09;5.47;;;3.33;;
15102;SDS011;7652;53.584;9.998;2022-12-24T17:30:12;8.53;;;4.27;;
15102;SDS011;7652;53.584;9.998;2022-12-24T17:33:16;8.63;;;4.27;;
15102;SDS011;7652;53.584;9.998;2022-12-24T17:36:21;6.20;;;3.57;;
15102;SDS011;7652;53.584;9.998;2022-12-24T17:39:24;10.20;;;4.17;;
15102;SDS011;7652;53.584;9.998;2022-12-24T17:42:28;6.53;;;3.90;;
15102;SDS011;7652;53.584;9.998;2022-12-24T17:45:31;6.50;;;3.63;;
15102;SDS011;7652;53.584;9.998;2022-12-24T17:48:34;11.30;;;4.57;;
15102;SDS011;7652;53.584;9.998;2022-12-24T17:51:39;8.67;;;3.83;;
15102;SDS011;7652;53.584;9.998;2022-12-24T17:54:46;7.80;;;3.80;;
15102;SDS011;7652;53.584;9.998;2022-12-24T17:57:49;9.80;;;4.93;;
15102;SDS011;7652;53.584;9.998;2022-12-24T18:00:52;8.27;;;3.90;;
15102;SDS011;7652;53.584;9.998;2022-12-24T18:03:56;7.43;;;3.53;;
15102;SDS011;7652;53.584;9.998;2022-12-24T18:07:02;8.40;;;4.27;;
15102;SDS011;7652;53.584;9.998;2022-12-24T18:10:05;8.50;;;3.40;;
15102;SDS011;7652;53.584;9.998;2022-12-24T18:13:09;10.33;;;4.57;;
15102;SDS011;7652;53.584;9.998;2022-12-24T18:16:20;8.37;;;3.03;;
15102;SDS011;7652;53.584;9.998;2022-12-24T18:19:24;6.47;;;3.47;;
15102;SDS011;7652;53.584;9.998;2022-12-24T18:22:29;8.40;;;3.50;;
15102;SDS011;7652;53.584;9.998;2022-12-24T18:25:32;10.63;;;3.73;;
15102;SDS011;7652;53.584;9.998;2022-12-24T18:28:35;12.97;;;3.90;;
15102;SDS011;7652;53.584;9.998;2022-12-24T18:31:38;11.13;;;3.67;;
15102;SDS011;7652;53.584;9.998;2022-12-24T18:34:42;10.27;;;3.33;;
15102;SDS011;7652;53.584;9.998;2022-12-24T18:37:46;8.07;;;4.10;;
15102;SDS011;7652;53.584;9.998;2022-12-24T18:40:50;12.57;;;6.53;;
15102;SDS011;7652;53.584;9.998;2022-12-24T18:43:53;9.87;;;4.70;;
15102;SDS011;7652;53.584;9.998;2022-12-24T18:46:57;8.33;;;3.20;;
15102;SDS011;7652;53.584;9.998;2022-12-24T18:50:00;9.33;;;2.83;;
15102;SDS011;7652;53.584;9.998;2022-12-24T18:53:06;9.47;;;3.63;;
15102;SDS011;7652;53.584;9.998;2022-12-24T18:56:12;10.37;;;4.30;;
15102;SDS011;7652;53.584;9.998;2022-12-24T18:59:17;9.97;;;4.13;;
15102;SDS011;7652;53.584;9.998;2022-12-24T19:02:20;8.07;;;3.30;;
15102;SDS011;7652;53.584;9.998;2022-12-24T19:05:23;10.00;;;4.03;;
15102;SDS011;7652;53.584;9.998;2022-12-24T19:08:27;6.93;;;3.23;;